createdAt,value
2018-05-09T00:00:45.443Z,5.10
2018-05-09T00:03:13.002Z,4.33
2018-05-09T00:05:40.559Z,4.73
2018-05-09T00:08:08.136Z,4.80
2018-05-09T00:10:35.677Z,4.53
2018-05-09T00:13:03.256Z,5.40
2018-05-09T00:15:31.557Z,4.70
2018-05-09T00:17:59.883Z,5.30
2018-05-09T00:20:27.436Z,4.77
2018-05-09T00:22:55.003Z,4.80
2018-05-09T00:25:23.341Z,4.80
2018-05-09T00:27:50.898Z,4.73
2018-05-09T00:30:18.445Z,5.03
2018-05-09T00:32:46.781Z,4.63
2018-05-09T00:35:15.100Z,4.90
2018-05-09T00:37:43.440Z,3.70
2018-05-09T00:40:10.983Z,4.30
2018-05-09T00:42:38.556Z,5.30
2018-05-09T00:45:06.119Z,5.10
2018-05-09T00:47:33.694Z,6.30
2018-05-09T00:50:02.016Z,5.90
2018-05-09T00:52:29.598Z,4.93
2018-05-09T00:54:57.171Z,5.40
2018-05-09T00:57:24.734Z,5.60
2018-05-09T00:59:52.292Z,5.60
2018-05-09T01:02:19.867Z,5.07
2018-05-09T01:04:47.409Z,6.40
2018-05-09T01:07:14.984Z,5.63
2018-05-09T01:09:42.548Z,5.33
2018-05-09T01:12:10.108Z,5.00
2018-05-09T01:14:37.637Z,4.90
2018-05-09T01:17:05.207Z,5.90
2018-05-09T01:19:32.745Z,5.60
2018-05-09T01:22:00.294Z,5.47
2018-05-09T01:24:27.866Z,5.73
2018-05-09T01:26:55.412Z,5.10
2018-05-09T01:29:22.987Z,5.40
2018-05-09T01:31:50.538Z,6.97
2018-05-09T01:34:18.099Z,5.50
2018-05-09T01:36:45.629Z,5.53
2018-05-09T01:39:13.212Z,5.83
2018-05-09T01:41:40.769Z,5.50
2018-05-09T01:44:08.340Z,6.30
2018-05-09T01:46:35.888Z,5.97
2018-05-09T01:49:03.467Z,5.40
2018-05-09T01:51:32.035Z,6.77
2018-05-09T01:53:59.620Z,5.80
2018-05-09T01:56:27.176Z,6.40
2018-05-09T01:58:54.742Z,5.87
2018-05-09T02:01:22.286Z,5.90
2018-05-09T02:03:49.901Z,6.77
2018-05-09T02:06:17.450Z,6.67
2018-05-09T02:08:45.019Z,6.60
2018-05-09T02:11:12.555Z,6.03
2018-05-09T02:13:40.116Z,5.70
2018-05-09T02:16:07.662Z,6.27
2018-05-09T02:18:35.232Z,6.70
2018-05-09T02:21:02.779Z,6.20
2018-05-09T02:23:30.354Z,6.60
2018-05-09T02:25:57.931Z,7.97
2018-05-09T02:28:25.476Z,6.87
2018-05-09T02:30:53.034Z,6.93
2018-05-09T02:33:20.580Z,7.47
2018-05-09T02:35:48.150Z,6.90
2018-05-09T02:38:15.681Z,7.33
2018-05-09T02:40:43.247Z,7.70
2018-05-09T02:43:10.795Z,8.00
2018-05-09T02:45:38.355Z,8.17
2018-05-09T02:48:05.912Z,8.07
2018-05-09T02:50:33.481Z,7.43
2018-05-09T02:53:01.024Z,8.00
2018-05-09T02:55:28.600Z,7.10
2018-05-09T02:57:56.153Z,8.07
2018-05-09T03:00:23.738Z,8.50
2018-05-09T03:02:51.292Z,8.70
2018-05-09T03:05:18.854Z,8.90
2018-05-09T03:07:46.410Z,7.40
2018-05-09T03:10:13.962Z,7.47
2018-05-09T03:12:41.489Z,7.93
2018-05-09T03:15:09.055Z,8.00
2018-05-09T03:17:36.590Z,7.03
2018-05-09T03:20:04.167Z,7.77
2018-05-09T03:22:31.717Z,7.80
2018-05-09T03:24:59.296Z,8.17
2018-05-09T03:27:26.873Z,5.70
2018-05-09T03:29:54.553Z,6.70
2018-05-09T03:32:22.790Z,7.20
2018-05-09T03:34:52.310Z,6.60
2018-05-09T03:37:19.882Z,6.90
2018-05-09T03:39:47.418Z,6.90
2018-05-09T03:42:15.026Z,6.93
2018-05-09T03:44:42.565Z,8.10
2018-05-09T03:47:10.132Z,7.83
2018-05-09T03:49:37.677Z,7.57
2018-05-09T03:52:06.263Z,9.33
2018-05-09T03:54:33.807Z,7.07
2018-05-09T03:57:01.378Z,8.10
2018-05-09T03:59:28.931Z,7.77
2018-05-09T04:02:08.345Z,8.10
2018-05-09T04:04:47.636Z,7.03
2018-05-09T04:07:26.888Z,7.47
2018-05-09T04:09:55.889Z,7.20
2018-05-09T04:12:24.223Z,8.03
2018-05-09T04:14:51.859Z,7.30
2018-05-09T04:17:19.354Z,7.23
2018-05-09T04:19:46.908Z,7.43
2018-05-09T04:22:14.483Z,7.70
2018-05-09T04:24:42.030Z,8.37
2018-05-09T04:27:09.585Z,7.10
2018-05-09T04:29:38.109Z,7.27
2018-05-09T04:32:05.679Z,8.10
2018-05-09T04:34:33.221Z,7.73
2018-05-09T04:37:01.571Z,8.00
2018-05-09T04:39:29.120Z,8.00
2018-05-09T04:41:56.719Z,8.13
2018-05-09T04:44:24.239Z,7.17
2018-05-09T04:46:51.807Z,8.10
2018-05-09T04:49:19.348Z,7.20
2018-05-09T04:51:46.916Z,7.90
2018-05-09T04:54:14.468Z,7.70
2018-05-09T04:56:42.025Z,7.37
2018-05-09T04:59:10.345Z,7.10
2018-05-09T05:01:38.687Z,7.63
2018-05-09T05:04:06.243Z,8.20
2018-05-09T05:06:33.815Z,7.70
2018-05-09T05:09:01.376Z,6.97
2018-05-09T05:11:28.952Z,7.40
2018-05-09T05:13:57.265Z,7.27
2018-05-09T05:16:24.806Z,8.00
2018-05-09T05:18:53.134Z,7.40
2018-05-09T05:21:20.683Z,8.23
2018-05-09T05:23:48.262Z,7.90
2018-05-09T05:26:15.799Z,8.00
2018-05-09T05:28:43.353Z,7.73
2018-05-09T05:31:10.895Z,8.67
2018-05-09T05:33:38.470Z,8.30
2018-05-09T05:36:06.016Z,7.80
2018-05-09T05:38:33.594Z,8.20
2018-05-09T05:41:01.143Z,9.67
2018-05-09T05:43:28.718Z,9.23
2018-05-09T05:45:56.268Z,9.80
2018-05-09T05:48:23.851Z,9.60
2018-05-09T05:50:51.398Z,9.27
2018-05-09T05:53:19.736Z,9.37
2018-05-09T05:55:48.060Z,10.90
2018-05-09T05:58:15.632Z,11.70
2018-05-09T06:00:43.191Z,10.77
2018-05-09T06:03:10.768Z,10.93
2018-05-09T06:05:38.313Z,12.47
2018-05-09T06:08:05.883Z,12.30
2018-05-09T06:10:33.425Z,11.00
2018-05-09T06:13:00.992Z,10.57
2018-05-09T06:15:28.555Z,11.60
2018-05-09T06:17:56.143Z,12.03
2018-05-09T06:20:24.463Z,11.20
2018-05-09T06:22:52.024Z,11.23
2018-05-09T06:25:19.590Z,11.70
2018-05-09T06:27:47.144Z,9.47
2018-05-09T06:30:14.709Z,11.60
2018-05-09T06:32:42.249Z,10.27
2018-05-09T06:35:09.823Z,12.50
2018-05-09T06:37:37.446Z,10.93
2018-05-09T06:40:04.987Z,11.47
2018-05-09T06:42:33.326Z,11.00
2018-05-09T06:45:00.907Z,10.47
2018-05-09T06:47:28.441Z,11.23
2018-05-09T06:49:56.046Z,12.07
2018-05-09T06:52:24.325Z,9.40
2018-05-09T06:54:52.659Z,9.60
2018-05-09T06:57:20.208Z,10.47
2018-05-09T06:59:47.811Z,9.30
2018-05-09T07:02:15.351Z,9.60
2018-05-09T07:04:42.930Z,9.73
2018-05-09T07:07:10.474Z,8.90
2018-05-09T07:09:38.058Z,8.53
2018-05-09T07:12:06.375Z,9.47
2018-05-09T07:14:33.944Z,8.83
2018-05-09T07:17:01.508Z,7.73
2018-05-09T07:19:29.071Z,8.13
2018-05-09T07:21:56.624Z,7.37
2018-05-09T07:24:24.203Z,6.90
2018-05-09T07:26:51.758Z,9.40
2018-05-09T07:29:19.331Z,6.40
2018-05-09T07:31:46.868Z,5.60
2018-05-09T07:34:14.426Z,6.37
2018-05-09T07:36:41.978Z,5.37
2018-05-09T07:39:09.543Z,4.50
2018-05-09T07:41:37.085Z,4.50
2018-05-09T07:44:04.631Z,4.33
2018-05-09T07:46:32.961Z,5.03
2018-05-09T07:49:00.511Z,5.37
2018-05-09T07:51:28.083Z,5.03
2018-05-09T07:53:55.630Z,5.13
2018-05-09T07:56:23.212Z,4.83
2018-05-09T07:58:50.752Z,4.60
2018-05-09T08:01:18.326Z,4.60
2018-05-09T08:03:45.891Z,5.17
2018-05-09T08:06:13.470Z,5.00
2018-05-09T08:08:41.797Z,4.10
2018-05-09T08:11:09.363Z,4.67
2018-05-09T08:13:37.694Z,4.80
2018-05-09T08:16:06.042Z,4.23
2018-05-09T08:18:33.601Z,5.07
2018-05-09T08:21:01.163Z,4.23
2018-05-09T08:23:28.731Z,4.30
2018-05-09T08:25:56.310Z,4.60
2018-05-09T08:28:24.639Z,4.70
2018-05-09T08:30:52.218Z,4.43
2018-05-09T08:33:19.775Z,4.50
2018-05-09T08:35:47.333Z,4.43
2018-05-09T08:38:14.887Z,4.80
2018-05-09T08:40:42.451Z,4.87
2018-05-09T08:43:10.079Z,4.30
2018-05-09T08:45:37.675Z,4.57
2018-05-09T08:48:05.224Z,4.67
2018-05-09T08:50:32.758Z,4.60
2018-05-09T08:53:00.322Z,5.17
2018-05-09T08:55:27.954Z,4.63
2018-05-09T08:57:55.462Z,5.03
2018-05-09T09:00:23.048Z,4.40
2018-05-09T09:02:50.617Z,4.87
2018-05-09T09:05:18.927Z,4.80
2018-05-09T09:07:46.495Z,4.90
2018-05-09T09:10:14.051Z,4.73
2018-05-09T09:12:41.602Z,5.03
2018-05-09T09:15:09.140Z,5.17
2018-05-09T09:17:37.483Z,4.43
2018-05-09T09:20:05.045Z,4.60
2018-05-09T09:22:32.614Z,4.90
2018-05-09T09:25:00.167Z,4.37
2018-05-09T09:27:27.736Z,5.00
2018-05-09T09:29:55.279Z,5.27
2018-05-09T09:32:22.856Z,5.40
2018-05-09T09:34:50.398Z,4.60
2018-05-09T09:37:17.961Z,5.00
2018-05-09T09:39:45.503Z,5.17
2018-05-09T09:42:13.061Z,4.43
2018-05-09T09:44:40.601Z,4.83
2018-05-09T09:47:08.167Z,5.23
2018-05-09T09:49:35.698Z,4.27
2018-05-09T09:52:03.243Z,5.57
2018-05-09T09:54:31.583Z,5.53
2018-05-09T09:56:59.139Z,5.23
2018-05-09T09:59:26.709Z,4.80
2018-05-09T10:01:54.263Z,5.80
2018-05-09T10:04:21.837Z,5.53
2018-05-09T10:06:49.389Z,5.30
2018-05-09T10:09:16.954Z,4.93
2018-05-09T10:11:44.489Z,5.97
2018-05-09T10:14:12.071Z,5.60
2018-05-09T10:16:39.615Z,6.10
2018-05-09T10:19:07.184Z,5.40
2018-05-09T10:21:34.721Z,4.83
2018-05-09T10:24:02.285Z,5.30
2018-05-09T10:26:29.836Z,5.10
2018-05-09T10:28:57.422Z,5.43
2018-05-09T10:31:25.010Z,5.03
2018-05-09T10:33:52.560Z,5.50
2018-05-09T10:36:20.106Z,5.70
2018-05-09T10:38:47.662Z,5.77
2018-05-09T10:41:15.208Z,5.30
2018-05-09T10:43:42.791Z,5.60
2018-05-09T10:46:10.339Z,5.13
2018-05-09T10:48:37.911Z,5.50
2018-05-09T10:51:05.459Z,5.13
2018-05-09T10:53:33.032Z,5.30
2018-05-09T10:56:00.575Z,5.90
2018-05-09T10:58:28.146Z,5.20
2018-05-09T11:00:55.690Z,5.53
2018-05-09T11:03:23.267Z,5.50
2018-05-09T11:05:50.811Z,5.97
2018-05-09T11:08:18.351Z,5.30
2018-05-09T11:10:45.905Z,5.67
2018-05-09T11:13:13.450Z,5.60
2018-05-09T11:15:41.037Z,5.17
2018-05-09T11:18:08.584Z,5.27
2018-05-09T11:20:36.146Z,4.93
2018-05-09T11:23:03.687Z,5.87
2018-05-09T11:25:31.250Z,4.90
2018-05-09T11:27:58.786Z,5.03
2018-05-09T11:30:27.122Z,5.20
2018-05-09T11:32:54.668Z,5.80
2018-05-09T11:35:22.235Z,4.47
2018-05-09T11:37:49.778Z,5.10
2018-05-09T11:40:17.348Z,4.53
2018-05-09T11:42:44.891Z,5.53
2018-05-09T11:45:12.460Z,5.10
2018-05-09T11:47:40.030Z,5.30
2018-05-09T11:50:07.607Z,4.70
2018-05-09T11:52:35.156Z,4.67
2018-05-09T11:55:02.723Z,4.77
2018-05-09T11:57:30.257Z,5.30
2018-05-09T11:59:57.801Z,4.83
2018-05-09T12:02:25.381Z,5.17
2018-05-09T12:04:52.934Z,5.20
2018-05-09T12:07:20.492Z,5.33
2018-05-09T12:09:48.029Z,5.27
2018-05-09T12:12:15.588Z,4.97
2018-05-09T12:14:43.895Z,4.83
2018-05-09T12:17:11.476Z,5.93
2018-05-09T12:19:39.035Z,5.07
2018-05-09T12:22:06.618Z,4.80
2018-05-09T12:24:35.020Z,4.93
2018-05-09T12:27:02.814Z,5.47
2018-05-09T12:29:30.372Z,5.50
2018-05-09T12:31:57.997Z,5.27
2018-05-09T12:34:25.583Z,4.90
2018-05-09T12:36:53.144Z,5.77
2018-05-09T12:39:20.700Z,5.37
2018-05-09T12:41:48.271Z,5.47
2018-05-09T12:44:15.814Z,4.67
2018-05-09T12:46:43.385Z,4.30
2018-05-09T12:49:10.969Z,4.47
2018-05-09T12:51:39.333Z,4.20
2018-05-09T12:54:06.871Z,4.50
2018-05-09T12:56:34.447Z,5.30
2018-05-09T12:59:01.995Z,4.70
2018-05-09T13:01:29.596Z,5.60
2018-05-09T13:03:57.135Z,5.77
2018-05-09T13:06:24.671Z,5.40
2018-05-09T13:08:52.246Z,5.03
2018-05-09T13:11:19.791Z,4.70
2018-05-09T13:13:47.363Z,5.00
2018-05-09T13:16:14.920Z,4.87
2018-05-09T13:18:42.486Z,5.60
2018-05-09T13:21:10.043Z,4.90
2018-05-09T13:23:37.605Z,4.53
2018-05-09T13:26:05.150Z,3.80
2018-05-09T13:28:32.718Z,4.40
2018-05-09T13:31:00.264Z,4.50
2018-05-09T13:33:27.837Z,4.97
2018-05-09T13:35:55.375Z,5.40
2018-05-09T13:38:23.704Z,5.70
2018-05-09T13:40:51.259Z,4.83
2018-05-09T13:45:52.683Z,4.10
2018-05-09T13:51:18.514Z,6.20
2018-05-09T13:53:46.169Z,5.63
2018-05-09T13:56:13.683Z,5.93
2018-05-09T13:58:41.267Z,6.10
2018-05-09T14:01:08.821Z,6.37
2018-05-09T14:03:37.189Z,5.90
2018-05-09T14:06:04.729Z,5.63
2018-05-09T14:08:32.304Z,5.70
2018-05-09T14:10:59.855Z,5.20
2018-05-09T14:13:28.207Z,4.67
2018-05-09T14:15:55.811Z,4.77
2018-05-09T14:18:23.397Z,4.83
2018-05-09T14:20:51.711Z,6.17
2018-05-09T14:23:19.276Z,5.23
2018-05-09T14:25:46.953Z,3.93
2018-05-09T14:28:14.417Z,4.47
2018-05-09T14:30:41.960Z,4.20
2018-05-09T14:33:09.523Z,4.60
2018-05-09T14:35:37.063Z,4.27
2018-05-09T14:38:04.624Z,4.33
2018-05-09T14:40:32.208Z,4.33
2018-05-09T14:42:59.756Z,4.30
2018-05-09T14:45:27.328Z,4.10
2018-05-09T14:47:54.875Z,4.53
2018-05-09T14:50:22.452Z,4.80
2018-05-09T14:52:50.119Z,4.27
2018-05-09T14:55:17.791Z,4.13
2018-05-09T14:57:45.331Z,4.60
2018-05-09T15:00:12.930Z,4.63
2018-05-09T15:02:40.476Z,4.33
2018-05-09T15:05:08.044Z,4.03
2018-05-09T15:07:36.374Z,4.50
2018-05-09T15:10:03.960Z,3.77
2018-05-09T15:12:31.511Z,3.80
2018-05-09T15:14:59.065Z,4.27
2018-05-09T15:17:26.604Z,4.47
2018-05-09T15:19:54.168Z,3.93
2018-05-09T15:22:21.711Z,4.50
2018-05-09T15:24:49.305Z,3.90
2018-05-09T15:27:16.855Z,4.53
2018-05-09T15:29:44.409Z,4.10
2018-05-09T15:32:11.952Z,4.10
2018-05-09T15:34:39.525Z,4.13
2018-05-09T15:37:07.072Z,3.80
2018-05-09T15:39:34.647Z,4.73
2018-05-09T15:42:02.205Z,4.00
2018-05-09T15:44:29.779Z,4.27
2018-05-09T15:46:57.325Z,4.30
2018-05-09T15:49:24.901Z,4.43
2018-05-09T15:51:52.449Z,4.07
2018-05-09T15:54:19.997Z,4.33
2018-05-09T15:56:47.560Z,4.03
2018-05-09T15:59:15.102Z,4.33
2018-05-09T16:01:42.671Z,4.57
2018-05-09T16:04:10.215Z,4.03
2018-05-09T16:06:37.799Z,4.30
2018-05-09T16:09:05.336Z,4.07
2018-05-09T16:11:32.945Z,4.17
2018-05-09T16:14:00.495Z,4.67
2018-05-09T16:16:28.056Z,4.47
2018-05-09T16:18:55.603Z,3.87
2018-05-09T16:21:23.170Z,4.60
2018-05-09T16:23:50.713Z,4.57
2018-05-09T16:26:18.281Z,4.67
2018-05-09T16:28:45.836Z,4.90
2018-05-09T16:31:13.403Z,4.53
2018-05-09T16:33:40.944Z,4.30
2018-05-09T16:36:08.512Z,3.97
2018-05-09T16:38:36.041Z,4.00
2018-05-09T16:41:04.394Z,3.87
2018-05-09T16:43:31.935Z,4.80
2018-05-09T16:45:59.486Z,4.23
2018-05-09T16:48:27.036Z,4.97
2018-05-09T16:50:54.652Z,5.07
2018-05-09T16:53:23.037Z,4.50
2018-05-09T16:55:50.555Z,4.90
2018-05-09T16:58:18.371Z,4.80
2018-05-09T17:00:45.933Z,4.53
2018-05-09T17:03:13.479Z,3.63
2018-05-09T17:05:41.806Z,3.70
2018-05-09T17:08:09.437Z,4.40
2018-05-09T17:10:37.000Z,4.00
2018-05-09T17:13:04.647Z,4.40
2018-05-09T17:15:32.129Z,4.77
2018-05-09T17:17:59.661Z,4.13
2018-05-09T17:20:27.964Z,3.80
2018-05-09T17:22:55.532Z,4.60
2018-05-09T17:25:23.079Z,4.17
2018-05-09T17:27:50.646Z,4.60
2018-05-09T17:30:18.217Z,4.10
2018-05-09T17:32:45.785Z,4.10
2018-05-09T17:35:13.335Z,3.70
2018-05-09T17:37:40.898Z,4.00
2018-05-09T17:40:08.443Z,4.70
2018-05-09T17:42:36.099Z,4.33
2018-05-09T17:45:03.575Z,4.07
2018-05-09T17:47:31.138Z,4.90
2018-05-09T17:49:58.680Z,4.03
2018-05-09T17:52:26.244Z,4.30
2018-05-09T17:54:53.789Z,4.60
2018-05-09T17:57:21.349Z,3.97
2018-05-09T17:59:48.893Z,4.20
2018-05-09T18:02:16.467Z,4.03
2018-05-09T18:04:44.359Z,4.37
2018-05-09T18:07:12.935Z,5.47
2018-05-09T18:09:40.481Z,5.00
2018-05-09T18:12:08.049Z,4.50
2018-05-09T18:14:35.607Z,3.97
2018-05-09T18:17:03.186Z,5.10
2018-05-09T18:19:30.726Z,4.23
2018-05-09T18:21:58.329Z,6.03
2018-05-09T18:24:25.882Z,5.43
2018-05-09T18:26:53.511Z,7.60
2018-05-09T18:29:21.791Z,8.77
2018-05-09T18:31:49.372Z,13.73
2018-05-09T18:34:16.916Z,12.83
2018-05-09T18:36:44.485Z,12.97
2018-05-09T18:39:12.794Z,11.97
2018-05-09T18:41:41.119Z,11.73
2018-05-09T18:44:08.685Z,8.50
2018-05-09T18:46:37.003Z,8.70
2018-05-09T18:49:04.583Z,8.97
2018-05-09T18:51:32.893Z,8.87
2018-05-09T18:54:00.491Z,7.83
2018-05-09T18:56:28.043Z,6.63
2018-05-09T18:58:55.619Z,6.90
2018-05-09T19:01:23.948Z,6.93
2018-05-09T19:03:51.515Z,7.07
2018-05-09T19:06:19.057Z,6.23
2018-05-09T19:08:46.629Z,5.50
2018-05-09T19:11:14.171Z,6.00
2018-05-09T19:13:41.752Z,6.20
2018-05-09T19:16:09.300Z,6.77
2018-05-09T19:18:36.873Z,5.80
2018-05-09T19:21:04.425Z,6.47
2018-05-09T19:23:31.985Z,5.83
2018-05-09T19:25:59.526Z,6.43
2018-05-09T19:28:27.104Z,6.60
2018-05-09T19:30:54.647Z,5.93
2018-05-09T19:33:22.222Z,6.00
2018-05-09T19:35:49.782Z,7.00
2018-05-09T19:38:17.352Z,6.70
2018-05-09T19:40:44.896Z,5.70
2018-05-09T19:43:12.456Z,5.70
2018-05-09T19:45:40.020Z,6.33
2018-05-09T19:48:07.594Z,6.60
2018-05-09T19:50:35.127Z,6.20
2018-05-09T19:53:02.706Z,7.47
2018-05-09T19:55:30.260Z,7.07
2018-05-09T19:57:58.147Z,7.20
2018-05-09T20:00:26.452Z,6.27
2018-05-09T20:02:54.826Z,6.37
2018-05-09T20:05:22.360Z,5.57
2018-05-09T20:07:49.907Z,5.90
2018-05-09T20:10:17.475Z,6.07
2018-05-09T20:12:45.018Z,5.60
2018-05-09T20:15:12.582Z,5.57
2018-05-09T20:17:40.113Z,6.60
2018-05-09T20:20:08.446Z,5.83
2018-05-09T20:22:35.995Z,5.87
2018-05-09T20:25:03.571Z,4.70
2018-05-09T20:27:31.119Z,5.90
2018-05-09T20:29:58.704Z,6.03
2018-05-09T20:32:32.949Z,6.20
2018-05-09T20:35:00.532Z,5.30
2018-05-09T20:37:28.074Z,5.50
2018-05-09T20:39:55.656Z,5.70
2018-05-09T20:42:23.213Z,4.97
2018-05-09T20:44:50.778Z,5.50
2018-05-09T20:47:18.327Z,5.47
2018-05-09T20:49:45.896Z,5.03
2018-05-09T20:52:13.451Z,5.30
2018-05-09T20:54:41.020Z,4.53
2018-05-09T20:57:09.328Z,5.63
2018-05-09T20:59:36.904Z,6.10
2018-05-09T21:02:05.222Z,5.20
2018-05-09T21:04:32.800Z,5.20
2018-05-09T21:07:00.359Z,5.83
2018-05-09T21:09:27.918Z,5.27
2018-05-09T21:12:07.931Z,4.63
2018-05-09T21:14:35.701Z,5.30
2018-05-09T21:17:03.186Z,5.80
2018-05-09T21:19:30.755Z,5.77
2018-05-09T21:21:58.319Z,5.90
2018-05-09T21:24:25.891Z,5.47
2018-05-09T21:26:53.437Z,5.57
2018-05-09T21:29:21.000Z,6.17
2018-05-09T21:31:48.564Z,5.10
2018-05-09T21:34:17.755Z,5.50
2018-05-09T21:36:46.095Z,6.77
2018-05-09T21:39:13.630Z,7.03
2018-05-09T21:41:41.965Z,6.47
2018-05-09T21:44:10.275Z,6.80
2018-05-09T21:46:38.604Z,7.00
2018-05-09T21:49:06.162Z,5.90
2018-05-09T21:51:33.723Z,5.93
2018-05-09T21:54:01.270Z,6.47
2018-05-09T21:56:28.864Z,6.50
2018-05-09T21:58:56.414Z,6.57
2018-05-09T22:01:23.983Z,5.70
2018-05-09T22:03:51.539Z,6.70
2018-05-09T22:06:19.112Z,6.20
2018-05-09T22:08:46.657Z,4.90
2018-05-09T22:11:14.235Z,5.70
2018-05-09T22:13:41.785Z,5.60
2018-05-09T22:16:09.346Z,5.63
2018-05-09T22:18:36.907Z,6.20
2018-05-09T22:21:04.487Z,5.70
2018-05-09T22:23:32.796Z,5.70
2018-05-09T22:26:00.359Z,5.80
2018-05-09T22:28:27.917Z,5.90
2018-05-09T22:30:55.483Z,5.10
2018-05-09T22:33:23.031Z,5.50
2018-05-09T22:35:50.611Z,4.83
2018-05-09T22:38:18.155Z,5.90
2018-05-09T22:40:45.714Z,4.80
2018-05-09T22:43:13.267Z,5.73
2018-05-09T22:45:40.823Z,5.90
2018-05-09T22:48:08.379Z,5.43
2018-05-09T22:50:36.711Z,5.20
2018-05-09T22:53:04.254Z,6.27
2018-05-09T22:55:31.822Z,5.40
2018-05-09T22:57:59.369Z,5.10
2018-05-09T23:00:26.975Z,5.33
2018-05-09T23:02:55.288Z,6.03
2018-05-09T23:05:22.838Z,5.50
2018-05-09T23:07:50.432Z,6.20
2018-05-09T23:10:18.079Z,4.63
2018-05-09T23:12:46.365Z,6.30
2018-05-09T23:15:13.915Z,6.07
2018-05-09T23:17:41.496Z,6.60
2018-05-09T23:20:09.041Z,6.87
2018-05-09T23:22:36.598Z,6.23
2018-05-09T23:25:04.146Z,6.33
2018-05-09T23:27:31.712Z,6.80
2018-05-09T23:29:59.251Z,6.40
2018-05-09T23:32:26.819Z,5.93
2018-05-09T23:34:54.375Z,6.40
2018-05-09T23:37:21.955Z,6.40
2018-05-09T23:39:49.494Z,6.67
2018-05-09T23:42:17.069Z,6.30
2018-05-09T23:44:44.601Z,6.60
2018-05-09T23:47:12.950Z,6.10
2018-05-09T23:49:40.499Z,7.30
2018-05-09T23:52:08.105Z,6.30
2018-05-09T23:54:35.655Z,6.53
2018-05-09T23:57:04.032Z,6.60
2018-05-09T23:59:32.336Z,6.63
